createdAt,value
2023-05-06T00:00:42.826Z,13.96
2023-05-06T00:02:14.434Z,13.95
2023-05-06T00:03:46.297Z,13.92
2023-05-06T00:05:21.255Z,13.95
2023-05-06T00:06:53.473Z,14.00
2023-05-06T00:08:25.074Z,13.90
2023-05-06T00:09:56.668Z,13.88
2023-05-06T00:11:28.248Z,13.91
2023-05-06T00:12:59.823Z,13.88
2023-05-06T00:14:31.474Z,13.77
2023-05-06T00:16:03.226Z,13.85
2023-05-06T00:17:34.999Z,13.89
2023-05-06T00:19:07.009Z,13.91
2023-05-06T00:20:39.197Z,13.85
2023-05-06T00:22:10.824Z,13.90
2023-05-06T00:23:42.349Z,13.83
2023-05-06T00:25:14.066Z,13.84
2023-05-06T00:26:45.676Z,13.91
2023-05-06T00:28:17.409Z,13.96
2023-05-06T00:29:49.191Z,13.91
2023-05-06T00:31:20.903Z,13.82
2023-05-06T00:32:52.803Z,13.88
2023-05-06T00:34:24.559Z,13.93
2023-05-06T00:35:56.629Z,13.98
2023-05-06T00:37:28.264Z,13.95
2023-05-06T00:39:00.143Z,13.90
2023-05-06T00:40:31.739Z,13.84
2023-05-06T00:42:03.627Z,13.85
2023-05-06T00:43:35.303Z,13.89
2023-05-06T00:45:07.646Z,13.90
2023-05-06T00:46:39.926Z,13.91
2023-05-06T00:48:11.916Z,13.91
2023-05-06T00:49:44.248Z,13.88
2023-05-06T00:51:16.595Z,13.88
2023-05-06T00:52:49.318Z,13.92
2023-05-06T00:54:21.583Z,13.94
2023-05-06T00:55:53.224Z,13.89
2023-05-06T00:57:24.915Z,13.88
2023-05-06T00:58:56.555Z,13.92
2023-05-06T01:00:28.566Z,13.95
2023-05-06T01:02:01.025Z,13.96
2023-05-06T01:03:33.166Z,13.99
2023-05-06T01:05:05.783Z,13.94
2023-05-06T01:07:23.567Z,13.90
2023-05-06T01:09:06.012Z,13.85
2023-05-06T01:10:55.099Z,13.79
2023-05-06T01:12:34.053Z,13.74
2023-05-06T01:14:12.659Z,13.74
2023-05-06T01:15:52.767Z,13.70
2023-05-06T01:17:28.217Z,13.62
2023-05-06T01:19:01.896Z,13.58
2023-05-06T01:20:34.072Z,13.53
2023-05-06T01:22:06.897Z,13.55
2023-05-06T01:23:57.525Z,13.49
2023-05-06T01:25:30.240Z,13.43
2023-05-06T01:27:01.787Z,13.40
2023-05-06T01:28:33.309Z,13.28
2023-05-06T01:30:07.424Z,13.26
2023-05-06T01:31:49.359Z,13.27
2023-05-06T01:33:29.350Z,13.24
2023-05-06T01:35:28.801Z,13.27
2023-05-06T01:37:18.960Z,13.23
2023-05-06T01:39:09.352Z,13.24
2023-05-06T01:40:42.777Z,13.26
2023-05-06T01:42:15.445Z,13.24
2023-05-06T01:43:49.061Z,13.27
2023-05-06T01:45:24.442Z,13.33
2023-05-06T01:46:56.355Z,13.35
2023-05-06T01:48:33.682Z,13.41
2023-05-06T01:50:05.787Z,13.42
2023-05-06T01:51:38.680Z,13.36
2023-05-06T01:53:10.275Z,13.37
2023-05-06T01:54:41.857Z,13.42
2023-05-06T01:56:13.474Z,13.46
2023-05-06T01:57:45.023Z,13.50
2023-05-06T01:59:16.624Z,13.52
2023-05-06T02:00:48.245Z,13.49
2023-05-06T02:02:20.238Z,13.51
2023-05-06T02:03:52.250Z,13.52
2023-05-06T02:05:24.198Z,13.56
2023-05-06T02:06:59.911Z,13.62
2023-05-06T02:08:31.487Z,13.55
2023-05-06T02:10:03.192Z,13.47
2023-05-06T02:11:35.945Z,13.41
2023-05-06T02:13:11.865Z,13.39
2023-05-06T02:14:43.698Z,13.43
2023-05-06T02:16:15.375Z,13.40
2023-05-06T02:17:46.977Z,13.39
2023-05-06T02:19:19.148Z,13.45
2023-05-06T02:20:51.307Z,13.50
2023-05-06T02:22:22.947Z,13.51
2023-05-06T02:23:54.543Z,13.43
2023-05-06T02:25:26.229Z,13.33
2023-05-06T02:26:57.862Z,13.29
2023-05-06T02:28:29.446Z,13.32
2023-05-06T02:30:01.154Z,13.31
2023-05-06T02:31:34.312Z,13.36
2023-05-06T02:33:06.210Z,13.42
2023-05-06T02:34:37.796Z,13.39
2023-05-06T02:36:09.461Z,13.34
2023-05-06T02:37:41.558Z,13.35
2023-05-06T02:39:13.235Z,13.33
2023-05-06T02:40:45.019Z,13.34
2023-05-06T02:42:16.768Z,13.34
2023-05-06T02:43:49.866Z,13.38
2023-05-06T02:45:21.740Z,13.32
2023-05-06T02:46:53.369Z,13.29
2023-05-06T02:48:25.006Z,13.32
2023-05-06T02:49:56.680Z,13.30
2023-05-06T02:51:28.338Z,13.23
2023-05-06T02:52:59.953Z,13.13
2023-05-06T02:54:31.549Z,13.09
2023-05-06T02:56:03.208Z,13.10
2023-05-06T02:57:34.800Z,13.07
2023-05-06T02:59:06.405Z,13.10
2023-05-06T03:00:38.102Z,13.13
2023-05-06T03:02:09.657Z,13.14
2023-05-06T03:03:42.057Z,13.18
2023-05-06T03:05:13.659Z,13.18
2023-05-06T03:06:45.256Z,13.18
2023-05-06T03:08:17.206Z,13.14
2023-05-06T03:09:49.000Z,13.14
2023-05-06T03:11:21.138Z,13.15
2023-05-06T03:12:52.698Z,13.17
2023-05-06T03:14:24.459Z,13.16
2023-05-06T03:15:56.414Z,13.16
2023-05-06T03:17:28.443Z,13.20
2023-05-06T03:19:00.377Z,13.08
2023-05-06T03:20:32.408Z,13.02
2023-05-06T03:22:05.494Z,13.09
2023-05-06T03:23:39.199Z,13.03
2023-05-06T03:25:11.033Z,12.89
2023-05-06T03:26:44.828Z,12.84
2023-05-06T03:28:17.886Z,12.80
2023-05-06T03:29:51.607Z,12.78
2023-05-06T03:31:24.872Z,12.75
2023-05-06T03:33:00.478Z,12.70
2023-05-06T03:34:36.351Z,12.76
2023-05-06T03:36:08.343Z,12.76
2023-05-06T03:37:40.694Z,12.74
2023-05-06T03:39:12.500Z,12.74
2023-05-06T03:40:44.705Z,12.76
2023-05-06T03:42:17.995Z,12.73
2023-05-06T03:43:51.172Z,12.68
2023-05-06T03:45:26.956Z,12.69
2023-05-06T03:46:59.578Z,12.68
2023-05-06T03:48:31.908Z,12.68
2023-05-06T03:50:04.136Z,12.66
2023-05-06T03:51:37.708Z,12.65
2023-05-06T03:53:09.816Z,12.65
2023-05-06T03:54:44.308Z,12.69
2023-05-06T03:56:18.155Z,12.65
2023-05-06T03:57:52.010Z,12.49
2023-05-06T03:59:24.944Z,12.47
2023-05-06T04:00:56.653Z,12.50
2023-05-06T04:02:29.358Z,12.42
2023-05-06T04:04:02.542Z,12.25
2023-05-06T04:05:34.487Z,12.16
2023-05-06T04:07:06.585Z,12.20
2023-05-06T04:08:38.219Z,12.22
2023-05-06T04:10:10.237Z,12.19
2023-05-06T04:11:42.221Z,12.18
2023-05-06T04:13:18.017Z,12.13
2023-05-06T04:14:50.536Z,12.10
2023-05-06T04:16:22.139Z,12.11
2023-05-06T04:17:53.782Z,12.12
2023-05-06T04:19:26.937Z,12.19
2023-05-06T04:21:00.165Z,12.24
2023-05-06T04:22:33.142Z,12.21
2023-05-06T04:24:04.975Z,12.25
2023-05-06T04:25:42.681Z,12.28
2023-05-06T04:27:15.209Z,12.13
2023-05-06T04:28:48.880Z,12.19
2023-05-06T04:30:21.332Z,12.17
2023-05-06T04:31:54.234Z,12.16
2023-05-06T04:33:27.438Z,12.12
2023-05-06T04:35:02.985Z,12.17
2023-05-06T04:36:35.159Z,12.15
2023-05-06T04:38:27.116Z,12.13
2023-05-06T04:40:02.383Z,12.15
2023-05-06T04:41:35.066Z,12.12
2023-05-06T04:43:06.707Z,11.99
2023-05-06T04:44:38.321Z,11.95
2023-05-06T04:46:13.431Z,11.79
2023-05-06T04:47:46.878Z,11.85
2023-05-06T04:49:19.495Z,11.87
2023-05-06T04:50:51.173Z,11.80
2023-05-06T04:52:22.914Z,11.88
2023-05-06T04:53:56.072Z,11.88
2023-05-06T04:55:27.896Z,11.85
2023-05-06T04:56:59.565Z,11.96
2023-05-06T04:58:31.566Z,11.95
2023-05-06T05:00:03.509Z,11.91
2023-05-06T05:01:35.222Z,11.91
2023-05-06T05:03:07.053Z,11.93
2023-05-06T05:04:38.789Z,11.94
2023-05-06T05:06:13.226Z,11.87
2023-05-06T05:07:45.016Z,11.81
2023-05-06T05:09:16.695Z,11.81
2023-05-06T05:10:49.924Z,11.83
2023-05-06T05:12:25.196Z,11.89
2023-05-06T05:13:59.461Z,11.90
2023-05-06T05:15:32.617Z,11.94
2023-05-06T05:17:04.236Z,11.95
2023-05-06T05:18:35.906Z,12.00
2023-05-06T05:20:13.931Z,11.96
2023-05-06T05:21:45.714Z,11.79
2023-05-06T05:23:18.168Z,11.65
2023-05-06T05:24:50.616Z,11.50
2023-05-06T05:26:22.272Z,11.36
2023-05-06T05:27:56.437Z,11.44
2023-05-06T05:29:28.064Z,11.39
2023-05-06T05:31:04.181Z,11.41
2023-05-06T05:32:38.634Z,11.40
2023-05-06T05:34:10.261Z,11.43
2023-05-06T05:35:41.971Z,11.51
2023-05-06T05:37:14.297Z,11.58
2023-05-06T05:38:47.775Z,11.80
2023-05-06T05:40:19.799Z,11.82
2023-05-06T05:41:54.225Z,11.92
2023-05-06T05:43:26.946Z,11.95
2023-05-06T05:45:00.144Z,11.88
2023-05-06T05:46:31.875Z,11.63
2023-05-06T05:48:04.126Z,11.61
2023-05-06T05:49:36.203Z,11.69
2023-05-06T05:51:08.425Z,11.79
2023-05-06T05:52:40.941Z,11.76
2023-05-06T05:54:14.296Z,11.85
2023-05-06T05:55:46.912Z,11.80
2023-05-06T05:57:19.397Z,11.93
2023-05-06T05:58:51.353Z,12.06
2023-05-06T06:00:23.078Z,12.19
2023-05-06T06:02:00.408Z,12.30
2023-05-06T06:03:32.716Z,12.33
2023-05-06T06:05:05.236Z,12.40
2023-05-06T06:06:37.201Z,12.43
2023-05-06T06:08:09.085Z,12.42
2023-05-06T06:09:41.717Z,12.31
2023-05-06T06:11:13.373Z,12.20
2023-05-06T06:12:46.937Z,12.32
2023-05-06T06:14:23.512Z,12.42
2023-05-06T06:15:56.763Z,12.51
2023-05-06T06:17:28.435Z,12.60
2023-05-06T06:19:01.883Z,12.59
2023-05-06T06:20:34.128Z,12.28
2023-05-06T06:22:05.919Z,12.31
2023-05-06T06:23:39.246Z,12.58
2023-05-06T06:25:11.722Z,13.07
2023-05-06T06:26:43.412Z,14.16
2023-05-06T06:28:15.098Z,14.51
2023-05-06T06:29:52.157Z,14.99
2023-05-06T06:31:23.826Z,16.05
2023-05-06T06:32:56.530Z,16.70
2023-05-06T06:34:28.627Z,15.12
2023-05-06T06:36:00.289Z,15.06
2023-05-06T06:37:31.921Z,15.70
2023-05-06T06:39:03.699Z,18.41
2023-05-06T06:40:35.576Z,18.15
2023-05-06T06:42:07.422Z,17.05
2023-05-06T06:43:44.521Z,18.71
2023-05-06T06:45:23.697Z,21.00
2023-05-06T06:46:55.987Z,20.88
2023-05-06T06:48:27.686Z,21.33
2023-05-06T06:49:59.390Z,21.11
2023-05-06T06:51:32.029Z,21.03
2023-05-06T06:53:06.142Z,19.56
2023-05-06T06:54:38.786Z,18.70
2023-05-06T06:56:14.317Z,18.48
2023-05-06T06:57:46.046Z,17.28
2023-05-06T06:59:17.600Z,18.10
2023-05-06T07:00:49.265Z,19.75
2023-05-06T07:02:22.095Z,19.51
2023-05-06T07:03:53.772Z,18.58
2023-05-06T07:05:26.933Z,16.69
2023-05-06T07:06:58.487Z,15.65
2023-05-06T07:08:30.225Z,15.47
2023-05-06T07:10:01.835Z,15.39
2023-05-06T07:11:33.583Z,15.43
2023-05-06T07:13:05.423Z,15.39
2023-05-06T07:14:37.390Z,15.49
2023-05-06T07:16:09.062Z,15.76
2023-05-06T07:17:40.873Z,15.48
2023-05-06T07:19:12.625Z,15.01
2023-05-06T07:20:44.229Z,15.23
2023-05-06T07:22:15.944Z,15.17
2023-05-06T07:23:47.557Z,14.79
2023-05-06T07:25:19.469Z,14.70
2023-05-06T07:26:51.050Z,14.85
2023-05-06T07:28:22.603Z,14.89
2023-05-06T07:29:54.336Z,15.28
2023-05-06T07:31:26.552Z,15.56
2023-05-06T07:32:58.238Z,15.67
2023-05-06T07:34:29.941Z,15.77
2023-05-06T07:36:01.606Z,15.76
2023-05-06T07:37:33.272Z,15.73
2023-05-06T07:39:04.979Z,15.73
2023-05-06T07:40:36.592Z,15.92
2023-05-06T07:42:10.800Z,16.09
2023-05-06T07:43:42.458Z,16.33
2023-05-06T07:45:15.180Z,16.25
2023-05-06T07:46:47.074Z,16.18
2023-05-06T07:48:20.197Z,15.95
2023-05-06T07:49:52.086Z,15.98
2023-05-06T07:51:24.578Z,16.46
2023-05-06T07:52:56.616Z,16.66
2023-05-06T07:54:28.905Z,16.50
2023-05-06T07:56:02.615Z,16.53
2023-05-06T07:57:34.282Z,16.62
2023-05-06T07:59:06.538Z,16.30
2023-05-06T08:00:38.464Z,16.54
2023-05-06T08:02:10.373Z,16.72
2023-05-06T08:03:42.365Z,16.51
2023-05-06T08:05:14.902Z,17.03
2023-05-06T08:06:46.569Z,16.96
2023-05-06T08:08:19.605Z,16.88
2023-05-06T08:09:51.556Z,16.90
2023-05-06T08:11:23.785Z,16.77
2023-05-06T08:12:55.857Z,16.75
2023-05-06T08:14:28.317Z,16.67
2023-05-06T08:16:03.045Z,16.34
2023-05-06T08:17:35.586Z,16.58
2023-05-06T08:19:08.736Z,16.81
2023-05-06T08:20:40.639Z,16.87
2023-05-06T08:22:12.364Z,16.81
2023-05-06T08:23:44.071Z,16.83
2023-05-06T08:25:17.559Z,17.28
2023-05-06T08:26:50.214Z,17.40
2023-05-06T08:28:24.596Z,17.45
2023-05-06T08:29:57.410Z,17.22
2023-05-06T08:31:31.207Z,17.38
2023-05-06T08:33:03.093Z,17.70
2023-05-06T08:34:35.052Z,17.44
2023-05-06T08:36:07.016Z,17.55
2023-05-06T08:37:38.772Z,17.59
2023-05-06T08:39:10.594Z,17.64
2023-05-06T08:40:45.188Z,17.52
2023-05-06T08:42:17.351Z,17.54
2023-05-06T08:43:50.760Z,17.58
2023-05-06T08:45:25.191Z,17.78
2023-05-06T08:46:58.851Z,17.68
2023-05-06T08:48:30.599Z,17.83
2023-05-06T08:50:02.577Z,18.02
2023-05-06T08:51:35.156Z,18.11
2023-05-06T08:53:16.988Z,18.24
2023-05-06T08:54:54.579Z,18.40
2023-05-06T08:56:29.272Z,18.69
2023-05-06T08:58:01.461Z,18.82
2023-05-06T08:59:34.649Z,18.85
2023-05-06T09:01:06.729Z,19.12
2023-05-06T09:02:41.268Z,19.21
2023-05-06T09:04:16.542Z,18.53
2023-05-06T09:05:48.245Z,18.65
2023-05-06T09:07:24.405Z,18.81
2023-05-06T09:08:56.233Z,18.83
2023-05-06T09:10:43.819Z,18.90
2023-05-06T09:12:15.657Z,18.85
2023-05-06T09:13:47.773Z,18.96
2023-05-06T09:15:24.277Z,18.79
2023-05-06T09:16:56.127Z,18.99
2023-05-06T09:18:28.971Z,19.17
2023-05-06T09:20:00.862Z,18.99
2023-05-06T09:21:41.932Z,19.04
2023-05-06T09:23:16.260Z,18.89
2023-05-06T09:24:57.007Z,18.71
2023-05-06T09:26:30.708Z,18.62
2023-05-06T09:28:10.907Z,18.76
2023-05-06T09:30:01.044Z,18.92
2023-05-06T09:31:33.266Z,19.00
2023-05-06T09:33:05.259Z,19.00
2023-05-06T09:34:36.944Z,18.60
2023-05-06T09:36:13.222Z,18.79
2023-05-06T09:37:44.966Z,18.68
2023-05-06T09:39:16.626Z,18.58
2023-05-06T09:40:48.266Z,18.95
2023-05-06T09:42:22.459Z,19.19
2023-05-06T09:43:55.416Z,19.25
2023-05-06T09:45:28.316Z,19.72
2023-05-06T09:47:00.119Z,20.06
2023-05-06T09:48:32.062Z,19.97
2023-05-06T09:50:05.110Z,19.91
2023-05-06T09:51:37.073Z,20.11
2023-05-06T09:53:11.750Z,20.40
2023-05-06T09:54:44.571Z,20.56
2023-05-06T09:56:16.431Z,20.25
2023-05-06T09:57:49.987Z,20.00
2023-05-06T09:59:25.331Z,19.88
2023-05-06T10:00:58.018Z,19.67
2023-05-06T10:02:31.120Z,19.69
2023-05-06T10:04:10.507Z,19.58
2023-05-06T10:05:44.196Z,19.75
2023-05-06T10:07:23.143Z,19.73
2023-05-06T10:08:56.642Z,19.89
2023-05-06T10:10:30.153Z,20.42
2023-05-06T10:12:02.399Z,20.14
2023-05-06T10:13:35.678Z,20.32
2023-05-06T10:15:09.228Z,20.56
2023-05-06T10:16:43.034Z,20.27
2023-05-06T10:18:22.509Z,20.34
2023-05-06T10:19:59.162Z,20.35
2023-05-06T10:21:34.448Z,20.25
2023-05-06T10:23:27.673Z,20.35
2023-05-06T10:25:04.523Z,20.18
2023-05-06T10:26:38.150Z,19.95
2023-05-06T10:28:14.399Z,19.99
2023-05-06T10:29:58.725Z,20.50
2023-05-06T10:31:30.900Z,20.60
2023-05-06T10:33:08.049Z,20.43
2023-05-06T10:34:53.069Z,20.48
2023-05-06T10:36:27.838Z,20.29
2023-05-06T10:38:02.210Z,19.99
2023-05-06T10:39:34.012Z,20.49
2023-05-06T10:41:07.506Z,20.76
2023-05-06T10:42:39.103Z,20.52
2023-05-06T10:44:10.931Z,20.83
2023-05-06T10:46:09.769Z,21.13
2023-05-06T10:47:56.880Z,21.14
2023-05-06T10:49:29.160Z,21.41
2023-05-06T10:51:13.945Z,21.43
2023-05-06T10:52:46.245Z,21.18
2023-05-06T10:54:20.898Z,21.52
2023-05-06T10:56:09.097Z,21.12
2023-05-06T10:57:41.490Z,20.75
2023-05-06T10:59:13.108Z,20.88
2023-05-06T11:00:54.672Z,21.43
2023-05-06T11:02:30.262Z,21.30
2023-05-06T11:04:09.566Z,21.75
2023-05-06T11:05:52.019Z,21.46
2023-05-06T11:07:25.023Z,21.83
2023-05-06T11:08:58.319Z,21.71
2023-05-06T11:10:33.426Z,21.91
2023-05-06T11:12:06.380Z,21.86
2023-05-06T11:13:42.006Z,22.18
2023-05-06T11:15:38.946Z,22.42
2023-05-06T11:17:30.214Z,22.63
2023-05-06T11:19:02.488Z,22.62
2023-05-06T11:20:34.050Z,22.42
2023-05-06T11:22:07.088Z,22.69
2023-05-06T11:23:42.022Z,22.27
2023-05-06T11:25:13.905Z,22.40
2023-05-06T11:26:47.725Z,22.97
2023-05-06T11:28:19.332Z,23.26
2023-05-06T11:29:50.908Z,22.27
2023-05-06T11:31:22.798Z,22.47
2023-05-06T11:32:57.369Z,22.60
2023-05-06T11:34:31.249Z,22.02
2023-05-06T11:36:04.755Z,21.80
2023-05-06T11:37:36.366Z,21.72
2023-05-06T11:39:10.790Z,21.94
2023-05-06T11:40:42.725Z,22.08
2023-05-06T11:42:15.674Z,22.40
2023-05-06T11:43:50.019Z,22.34
2023-05-06T11:45:21.780Z,22.46
2023-05-06T11:46:57.197Z,22.91
2023-05-06T11:48:28.794Z,23.16
2023-05-06T11:50:06.446Z,23.14
2023-05-06T11:51:38.057Z,23.27
2023-05-06T11:53:09.669Z,22.94
2023-05-06T11:54:42.637Z,22.60
2023-05-06T11:56:14.479Z,22.72
2023-05-06T11:57:46.922Z,22.93
2023-05-06T11:59:27.293Z,22.88
2023-05-06T12:01:01.091Z,23.02
2023-05-06T12:02:32.761Z,22.77
2023-05-06T12:04:04.621Z,22.70
2023-05-06T12:05:36.358Z,22.40
2023-05-06T12:07:10.125Z,22.88
2023-05-06T12:08:42.140Z,23.08
2023-05-06T12:10:14.254Z,23.04
2023-05-06T12:11:46.144Z,23.70
2023-05-06T12:13:19.100Z,23.50
2023-05-06T12:14:52.980Z,23.47
2023-05-06T12:16:25.965Z,22.69
2023-05-06T12:17:57.991Z,22.97
2023-05-06T12:19:30.644Z,22.93
2023-05-06T12:21:07.323Z,23.52
2023-05-06T12:22:39.100Z,24.16
2023-05-06T12:24:11.857Z,23.87
2023-05-06T12:25:49.112Z,23.22
2023-05-06T12:27:31.059Z,22.32
2023-05-06T12:29:09.121Z,22.45
2023-05-06T12:30:41.193Z,22.63
2023-05-06T12:32:13.023Z,22.65
2023-05-06T12:33:46.528Z,22.95
2023-05-06T12:35:28.558Z,23.53
2023-05-06T12:37:00.060Z,24.78
2023-05-06T12:38:32.230Z,24.42
2023-05-06T12:40:04.114Z,24.53
2023-05-06T12:41:41.654Z,24.48
2023-05-06T12:43:13.309Z,24.47
2023-05-06T12:44:44.889Z,24.13
2023-05-06T12:46:17.240Z,24.23
2023-05-06T12:47:53.665Z,25.20
2023-05-06T12:49:25.992Z,25.94
2023-05-06T12:50:58.348Z,27.11
2023-05-06T12:52:30.646Z,27.25
2023-05-06T12:54:02.674Z,27.06
2023-05-06T12:55:36.127Z,25.22
2023-05-06T12:57:07.875Z,24.29
2023-05-06T12:58:39.822Z,25.84
2023-05-06T13:00:12.402Z,26.21
2023-05-06T13:01:44.466Z,25.73
2023-05-06T13:03:16.279Z,25.20
2023-05-06T13:04:49.281Z,26.37
2023-05-06T13:06:21.144Z,27.30
2023-05-06T13:07:53.953Z,26.11
2023-05-06T13:09:25.974Z,26.70
2023-05-06T13:10:59.652Z,25.98
2023-05-06T13:12:31.331Z,26.07
2023-05-06T13:14:02.879Z,26.63
2023-05-06T13:15:35.021Z,26.94
2023-05-06T13:17:06.919Z,27.73
2023-05-06T13:18:38.980Z,27.37
2023-05-06T13:20:11.560Z,27.27
2023-05-06T13:21:44.191Z,27.91
2023-05-06T13:23:15.753Z,26.93
2023-05-06T13:24:47.364Z,27.47
2023-05-06T13:26:19.067Z,27.71
2023-05-06T13:27:50.738Z,27.47
2023-05-06T13:29:23.535Z,27.69
2023-05-06T13:30:55.321Z,27.16
2023-05-06T13:32:27.166Z,26.03
2023-05-06T13:33:58.846Z,26.67
2023-05-06T13:35:30.581Z,26.84
2023-05-06T13:37:02.097Z,27.70
2023-05-06T13:38:33.803Z,27.70
2023-05-06T13:40:06.416Z,26.75
2023-05-06T13:41:38.199Z,26.62
2023-05-06T13:43:10.002Z,27.06
2023-05-06T13:44:41.648Z,27.48
2023-05-06T13:46:13.271Z,27.49
2023-05-06T13:47:44.882Z,27.88
2023-05-06T13:49:18.739Z,28.54
2023-05-06T13:50:50.470Z,28.73
2023-05-06T13:52:22.048Z,28.54
2023-05-06T13:53:53.679Z,28.65
2023-05-06T13:55:25.386Z,27.99
2023-05-06T13:56:58.210Z,27.48
2023-05-06T13:58:29.939Z,26.42
2023-05-06T14:00:01.656Z,25.73
2023-05-06T14:01:33.561Z,25.66
2023-05-06T14:03:05.272Z,24.87
2023-05-06T14:04:37.166Z,24.24
2023-05-06T14:06:09.024Z,23.61
2023-05-06T14:07:41.490Z,23.09
2023-05-06T14:09:13.098Z,23.57
2023-05-06T14:10:45.244Z,23.24
2023-05-06T14:12:17.422Z,23.11
2023-05-06T14:13:49.881Z,23.19
2023-05-06T14:15:22.018Z,23.24
2023-05-06T14:16:56.086Z,23.09
2023-05-06T14:18:27.948Z,22.84
2023-05-06T14:20:00.356Z,22.95
2023-05-06T14:21:32.900Z,22.93
2023-05-06T14:23:07.266Z,22.66
2023-05-06T14:24:38.896Z,22.52
2023-05-06T14:26:10.542Z,22.66
2023-05-06T14:27:42.272Z,22.61
2023-05-06T14:29:14.248Z,22.79
2023-05-06T14:30:45.896Z,23.08
2023-05-06T14:32:17.513Z,22.93
2023-05-06T14:33:49.122Z,22.60
2023-05-06T14:35:20.913Z,22.33
2023-05-06T14:36:52.812Z,22.44
2023-05-06T14:38:24.929Z,22.32
2023-05-06T14:39:57.890Z,22.19
2023-05-06T14:41:31.327Z,21.86
2023-05-06T14:43:03.771Z,22.31
2023-05-06T14:44:36.308Z,22.18
2023-05-06T14:46:08.746Z,21.86
2023-05-06T14:47:41.274Z,21.73
2023-05-06T14:49:13.042Z,21.94
2023-05-06T14:50:44.589Z,22.18
2023-05-06T14:52:16.219Z,22.25
2023-05-06T14:53:48.147Z,22.48
2023-05-06T14:55:20.382Z,22.66
2023-05-06T14:56:52.007Z,22.59
2023-05-06T14:58:23.728Z,22.53
2023-05-06T14:59:55.310Z,22.39
2023-05-06T15:01:26.930Z,22.44
2023-05-06T15:02:59.287Z,22.46
2023-05-06T15:04:31.110Z,22.17
2023-05-06T15:06:02.916Z,22.17
2023-05-06T15:07:34.689Z,22.15
2023-05-06T15:09:07.170Z,22.17
2023-05-06T15:10:38.839Z,21.98
2023-05-06T15:12:11.411Z,22.00
2023-05-06T15:13:43.474Z,21.92
2023-05-06T15:15:15.084Z,21.88
2023-05-06T15:16:47.105Z,21.99
2023-05-06T15:18:18.741Z,21.92
2023-05-06T15:19:50.573Z,21.61
2023-05-06T15:21:22.212Z,21.46
2023-05-06T15:22:53.917Z,21.54
2023-05-06T15:24:26.186Z,21.75
2023-05-06T15:25:58.244Z,21.95
2023-05-06T15:27:30.723Z,22.10
2023-05-06T15:29:02.412Z,21.99
2023-05-06T15:30:33.957Z,21.69
2023-05-06T15:32:06.069Z,21.52
2023-05-06T15:33:37.749Z,21.72
2023-05-06T15:35:09.665Z,21.76
2023-05-06T15:36:41.717Z,21.78
2023-05-06T15:38:13.280Z,21.84
2023-05-06T15:39:45.549Z,21.95
2023-05-06T15:41:17.915Z,21.90
2023-05-06T15:42:49.530Z,21.59
2023-05-06T15:44:21.386Z,21.71
2023-05-06T15:45:53.090Z,21.63
2023-05-06T15:47:24.865Z,21.82
2023-05-06T15:49:15.746Z,21.83
2023-05-06T15:50:48.435Z,21.80
2023-05-06T15:52:21.184Z,21.75
2023-05-06T15:53:52.838Z,21.88
2023-05-06T15:55:25.391Z,21.93
2023-05-06T15:57:00.384Z,21.79
2023-05-06T15:58:33.973Z,21.62
2023-05-06T16:00:08.064Z,21.67
2023-05-06T16:03:16.195Z,21.59
2023-05-06T16:04:49.780Z,21.67
2023-05-06T16:06:22.042Z,21.71
2023-05-06T16:07:55.769Z,21.58
2023-05-06T16:09:27.388Z,21.54
2023-05-06T16:10:59.134Z,21.38
2023-05-06T16:12:32.683Z,21.51
2023-05-06T16:14:05.553Z,21.37
2023-05-06T16:15:37.530Z,21.32
2023-05-06T16:17:09.182Z,21.41
2023-05-06T16:18:40.819Z,21.26
2023-05-06T16:20:12.916Z,21.39
2023-05-06T16:21:44.805Z,21.42
2023-05-06T16:23:16.781Z,21.41
2023-05-06T16:24:48.841Z,21.35
2023-05-06T16:26:21.648Z,21.38
2023-05-06T16:27:56.763Z,21.29
2023-05-06T16:29:28.458Z,21.29
2023-05-06T16:31:02.699Z,21.33
2023-05-06T16:32:34.427Z,21.32
2023-05-06T16:34:06.876Z,21.27
2023-05-06T16:35:38.981Z,21.35
2023-05-06T16:37:10.581Z,21.19
2023-05-06T16:38:42.368Z,21.07
2023-05-06T16:40:17.175Z,21.19
2023-05-06T16:41:48.795Z,21.07
2023-05-06T16:43:20.675Z,21.00
2023-05-06T16:44:52.361Z,21.01
2023-05-06T16:46:24.784Z,20.96
2023-05-06T16:47:56.646Z,21.01
2023-05-06T16:49:28.278Z,20.98
2023-05-06T16:50:59.880Z,21.03
2023-05-06T16:52:31.758Z,20.96
2023-05-06T16:54:03.596Z,20.94
2023-05-06T16:55:35.611Z,21.01
2023-05-06T16:57:07.522Z,20.93
2023-05-06T16:58:40.278Z,20.91
2023-05-06T17:00:13.637Z,20.82
2023-05-06T17:01:46.323Z,20.88
2023-05-06T17:03:18.131Z,20.92
2023-05-06T17:04:50.503Z,20.99
2023-05-06T17:06:25.191Z,21.09
2023-05-06T17:07:57.953Z,21.11
2023-05-06T17:09:30.734Z,21.13
2023-05-06T17:11:06.240Z,21.04
2023-05-06T17:12:39.354Z,20.98
2023-05-06T17:14:11.856Z,20.79
2023-05-06T17:15:44.930Z,20.82
2023-05-06T17:17:18.601Z,20.74
2023-05-06T17:18:52.980Z,20.80
2023-05-06T17:20:25.958Z,20.73
2023-05-06T17:21:58.945Z,20.72
2023-05-06T17:23:31.488Z,20.63
2023-05-06T17:25:05.292Z,20.75
2023-05-06T17:26:41.189Z,20.76
2023-05-06T17:28:13.487Z,20.77
2023-05-06T17:29:47.258Z,20.75
2023-05-06T17:31:19.961Z,20.56
2023-05-06T17:32:53.348Z,20.58
2023-05-06T17:34:26.495Z,20.53
2023-05-06T17:35:59.291Z,20.45
2023-05-06T17:37:32.502Z,20.52
2023-05-06T17:39:06.369Z,20.47
2023-05-06T17:40:39.171Z,20.39
2023-05-06T17:42:11.907Z,20.42
2023-05-06T17:43:47.587Z,20.40
2023-05-06T17:45:20.533Z,20.26
2023-05-06T17:46:53.143Z,20.15
2023-05-06T17:48:26.039Z,20.27
2023-05-06T17:49:58.569Z,20.14
2023-05-06T17:51:31.164Z,20.00
2023-05-06T17:53:03.774Z,19.96
2023-05-06T17:54:38.004Z,19.88
2023-05-06T17:56:10.250Z,19.84
2023-05-06T17:57:42.600Z,19.79
2023-05-06T17:59:15.271Z,19.73
2023-05-06T18:00:47.482Z,19.70
2023-05-06T18:02:19.537Z,19.62
2023-05-06T18:03:51.502Z,19.62
2023-05-06T18:05:26.134Z,19.57
2023-05-06T18:06:59.021Z,19.57
2023-05-06T18:08:31.410Z,19.62
2023-05-06T18:10:04.380Z,19.60
2023-05-06T18:11:41.084Z,19.57
2023-05-06T18:13:13.711Z,19.57
2023-05-06T18:14:48.094Z,19.45
2023-05-06T18:16:20.561Z,19.34
2023-05-06T18:17:53.035Z,19.27
2023-05-06T18:19:25.922Z,19.24
2023-05-06T18:20:58.462Z,19.25
2023-05-06T18:22:30.761Z,19.18
2023-05-06T18:24:15.226Z,19.09
2023-05-06T18:25:49.735Z,19.05
2023-05-06T18:27:23.160Z,19.08
2023-05-06T18:28:57.563Z,19.05
2023-05-06T18:30:30.186Z,19.06
2023-05-06T18:32:02.924Z,18.99
2023-05-06T18:33:36.204Z,19.00
2023-05-06T18:35:08.429Z,18.95
2023-05-06T18:36:41.584Z,18.94
2023-05-06T18:38:14.720Z,18.91
2023-05-06T18:39:48.116Z,18.92
2023-05-06T18:41:22.042Z,18.86
2023-05-06T18:42:57.325Z,18.88
2023-05-06T18:44:30.725Z,18.84
2023-05-06T18:46:05.702Z,18.79
2023-05-06T18:47:40.626Z,18.78
2023-05-06T18:49:14.881Z,18.75
2023-05-06T18:50:47.685Z,18.68
2023-05-06T18:52:20.501Z,18.67
2023-05-06T18:53:53.060Z,18.63
2023-05-06T18:55:26.118Z,18.62
2023-05-06T18:56:59.092Z,18.59
2023-05-06T18:58:31.885Z,18.56
2023-05-06T19:00:07.868Z,18.58
2023-05-06T19:01:41.164Z,18.59
2023-05-06T19:03:13.805Z,18.48
2023-05-06T19:04:47.288Z,18.45
2023-05-06T19:06:20.266Z,18.43
2023-05-06T19:07:52.759Z,18.46
2023-05-06T19:09:25.112Z,18.42
2023-05-06T19:10:59.983Z,18.42
2023-05-06T19:12:32.973Z,18.42
2023-05-06T19:14:05.770Z,18.37
2023-05-06T19:15:38.485Z,18.38
2023-05-06T19:17:11.739Z,18.37
2023-05-06T19:18:45.115Z,18.34
2023-05-06T19:20:17.500Z,18.28
2023-05-06T19:21:51.906Z,18.21
2023-05-06T19:23:26.119Z,18.17
2023-05-06T19:24:59.267Z,18.17
2023-05-06T19:26:32.514Z,18.11
2023-05-06T19:28:10.517Z,18.18
2023-05-06T19:29:44.821Z,18.16
2023-05-06T19:31:17.240Z,18.12
2023-05-06T19:32:49.633Z,18.06
2023-05-06T19:34:22.695Z,18.03
2023-05-06T19:35:56.480Z,18.02
2023-05-06T19:37:30.833Z,17.99
2023-05-06T19:39:03.867Z,17.95
2023-05-06T19:40:37.031Z,17.89
2023-05-06T19:42:08.926Z,17.95
2023-05-06T19:43:44.455Z,17.95
2023-05-06T19:45:17.514Z,17.86
2023-05-06T19:46:54.419Z,17.85
2023-05-06T19:48:26.116Z,17.89
2023-05-06T19:49:57.881Z,17.86
2023-05-06T19:51:29.870Z,17.88
2023-05-06T19:53:01.717Z,17.86
2023-05-06T19:54:33.708Z,17.86
2023-05-06T19:56:13.204Z,17.84
2023-05-06T19:57:44.886Z,17.77
2023-05-06T19:59:17.569Z,17.67
2023-05-06T20:00:49.600Z,17.67
2023-05-06T20:02:21.380Z,17.61
2023-05-06T20:03:53.190Z,17.60